createdAt,value
2022-11-25T00:01:34.510Z,3.20
2022-11-25T00:04:03.619Z,3.20
2022-11-25T00:06:33.544Z,3.20
2022-11-25T00:09:08.590Z,3.20
2022-11-25T00:11:40.647Z,3.20
2022-11-25T00:14:11.404Z,3.10
2022-11-25T00:16:42.589Z,3.10
2022-11-25T00:19:14.835Z,3.10
2022-11-25T00:21:42.976Z,3.10
2022-11-25T00:24:13.920Z,3.10
2022-11-25T00:26:43.438Z,3.00
2022-11-25T00:29:14.155Z,3.00
2022-11-25T00:31:42.950Z,3.00
2022-11-25T00:34:14.253Z,3.00
2022-11-25T00:36:42.413Z,2.90
2022-11-25T00:39:13.182Z,2.90
2022-11-25T00:41:58.740Z,2.80
2022-11-25T00:44:37.767Z,2.80
2022-11-25T00:47:08.910Z,2.70
2022-11-25T00:49:37.157Z,2.70
2022-11-25T00:52:05.925Z,2.70
2022-11-25T00:54:35.633Z,2.60
2022-11-25T00:57:03.826Z,2.60
2022-11-25T00:59:33.256Z,2.50
2022-11-25T01:02:01.384Z,2.60
2022-11-25T01:04:29.649Z,2.60
2022-11-25T01:06:59.965Z,2.60
2022-11-25T01:09:28.400Z,2.60
2022-11-25T01:11:56.444Z,2.50
2022-11-25T01:14:25.588Z,2.50
2022-11-25T01:16:55.075Z,2.50
2022-11-25T01:19:23.352Z,2.50
2022-11-25T01:21:51.518Z,2.40
2022-11-25T01:24:19.690Z,2.50
2022-11-25T01:26:48.128Z,2.40
2022-11-25T01:29:17.651Z,2.50
2022-11-25T01:31:46.639Z,2.40
2022-11-25T01:34:18.883Z,2.40
2022-11-25T01:36:47.065Z,2.40
2022-11-25T01:39:18.228Z,2.40
2022-11-25T01:41:47.237Z,2.40
2022-11-25T01:44:17.231Z,2.30
2022-11-25T01:46:53.571Z,2.30
2022-11-25T01:49:30.399Z,2.30
2022-11-25T01:52:02.531Z,2.30
2022-11-25T01:54:36.633Z,2.30
2022-11-25T01:57:09.355Z,2.30
2022-11-25T01:59:44.253Z,2.30
2022-11-25T02:02:13.031Z,2.30
2022-11-25T02:08:58.500Z,2.20
2022-11-25T02:11:30.744Z,2.20
2022-11-25T02:14:00.651Z,2.20
2022-11-25T02:16:29.248Z,2.20
2022-11-25T02:18:57.404Z,2.20
2022-11-25T02:21:31.827Z,2.20
2022-11-25T02:24:09.598Z,2.10
2022-11-25T02:26:39.648Z,2.10
2022-11-25T02:29:09.873Z,2.10
2022-11-25T02:31:38.167Z,2.10
2022-11-25T02:34:06.592Z,2.10
2022-11-25T02:36:36.124Z,2.10
2022-11-25T02:39:04.761Z,2.10
2022-11-25T02:41:41.099Z,2.10
2022-11-25T02:44:09.797Z,2.00
2022-11-25T02:46:40.759Z,2.10
2022-11-25T02:49:10.206Z,2.10
2022-11-25T02:51:41.340Z,2.10
2022-11-25T02:54:10.851Z,2.10
2022-11-25T02:56:41.170Z,2.00
2022-11-25T02:59:10.556Z,2.10
2022-11-25T03:01:39.739Z,2.10
2022-11-25T03:04:10.645Z,2.00
2022-11-25T03:06:39.453Z,2.00
2022-11-25T03:09:08.780Z,2.00
2022-11-25T03:11:58.390Z,2.00
2022-11-25T03:14:26.419Z,2.10
2022-11-25T03:16:54.591Z,2.10
2022-11-25T03:19:22.697Z,2.10
2022-11-25T03:21:53.276Z,2.00
2022-11-25T03:24:21.363Z,2.00
2022-11-25T03:26:52.068Z,2.00
2022-11-25T03:29:20.350Z,2.00
2022-11-25T03:31:49.047Z,1.90
2022-11-25T03:34:17.433Z,2.00
2022-11-25T03:36:45.727Z,1.90
2022-11-25T03:39:14.072Z,1.90
2022-11-25T03:41:43.009Z,1.90
2022-11-25T03:44:13.330Z,1.80
2022-11-25T03:46:42.813Z,1.80
2022-11-25T03:49:10.860Z,1.70
2022-11-25T03:51:39.147Z,1.70
2022-11-25T03:54:07.744Z,1.70
2022-11-25T03:56:55.746Z,1.60
2022-11-25T03:59:26.471Z,1.70
2022-11-25T04:01:54.664Z,1.60
2022-11-25T04:04:23.768Z,1.60
2022-11-25T04:06:52.704Z,1.60
2022-11-25T04:09:21.596Z,1.60
2022-11-25T04:12:07.379Z,1.60
2022-11-25T04:14:48.484Z,1.60
2022-11-25T04:17:16.587Z,1.60
2022-11-25T04:19:47.058Z,1.60
2022-11-25T04:22:15.406Z,1.60
2022-11-25T04:24:46.624Z,1.60
2022-11-25T04:27:20.436Z,1.60
2022-11-25T04:29:50.997Z,1.60
2022-11-25T04:32:19.796Z,1.50
2022-11-25T04:34:48.235Z,1.50
2022-11-25T04:37:16.337Z,1.50
2022-11-25T04:39:45.743Z,1.50
2022-11-25T04:42:34.696Z,1.50
2022-11-25T04:45:25.150Z,1.50
2022-11-25T04:47:57.001Z,1.50
2022-11-25T04:50:25.653Z,1.50
2022-11-25T04:53:05.625Z,1.50
2022-11-25T04:55:33.865Z,1.50
2022-11-25T04:58:05.786Z,1.50
2022-11-25T05:00:36.481Z,1.50
2022-11-25T05:03:07.828Z,1.50
2022-11-25T05:05:39.518Z,1.50
2022-11-25T05:08:08.987Z,1.50
2022-11-25T05:10:39.526Z,1.50
2022-11-25T05:13:07.554Z,1.50
2022-11-25T05:15:37.000Z,1.60
2022-11-25T05:18:08.818Z,1.60
2022-11-25T05:20:45.179Z,1.60
2022-11-25T05:23:15.523Z,1.50
2022-11-25T05:25:48.188Z,1.50
2022-11-25T05:28:37.751Z,1.50
2022-11-25T05:31:07.273Z,1.60
2022-11-25T05:33:36.238Z,1.60
2022-11-25T05:36:06.515Z,1.60
2022-11-25T05:38:43.893Z,1.60
2022-11-25T05:41:15.429Z,1.50
2022-11-25T05:43:47.082Z,1.60
2022-11-25T05:46:16.936Z,1.60
2022-11-25T05:48:49.180Z,1.60
2022-11-25T05:51:18.664Z,1.50
2022-11-25T05:53:46.853Z,1.50
2022-11-25T05:56:15.904Z,1.50
2022-11-25T05:59:00.230Z,1.50
2022-11-25T06:01:43.258Z,1.50
2022-11-25T06:04:12.607Z,1.40
2022-11-25T06:06:40.702Z,1.30
2022-11-25T06:09:09.208Z,1.30
2022-11-25T06:11:38.029Z,1.40
2022-11-25T06:14:06.100Z,1.40
2022-11-25T06:16:34.931Z,1.40
2022-11-25T06:19:15.340Z,1.40
2022-11-25T06:21:44.231Z,1.40
2022-11-25T06:24:12.317Z,1.50
2022-11-25T06:26:42.776Z,1.40
2022-11-25T06:29:12.150Z,1.40
2022-11-25T06:31:42.616Z,1.40
2022-11-25T06:34:32.372Z,1.40
2022-11-25T06:37:03.849Z,1.40
2022-11-25T06:39:31.957Z,1.40
2022-11-25T06:42:00.161Z,1.50
2022-11-25T06:44:28.348Z,1.50
2022-11-25T06:46:56.429Z,1.40
2022-11-25T06:49:24.526Z,1.50
2022-11-25T06:51:53.847Z,1.50
2022-11-25T06:54:24.997Z,1.50
2022-11-25T06:56:53.783Z,1.50
2022-11-25T06:59:22.727Z,1.40
2022-11-25T07:01:50.963Z,1.50
2022-11-25T07:04:19.513Z,1.50
2022-11-25T07:06:47.595Z,1.50
2022-11-25T07:09:17.064Z,1.40
2022-11-25T07:11:45.562Z,1.40
2022-11-25T07:14:15.939Z,1.40
2022-11-25T07:16:45.540Z,1.40
2022-11-25T07:19:15.427Z,1.40
2022-11-25T07:21:45.666Z,1.40
2022-11-25T07:24:17.094Z,1.50
2022-11-25T07:26:46.197Z,1.50
2022-11-25T07:32:10.270Z,1.60
2022-11-25T07:34:38.896Z,1.60
2022-11-25T07:37:08.163Z,1.60
2022-11-25T07:39:37.939Z,1.60
2022-11-25T07:42:06.406Z,1.70
2022-11-25T07:44:34.987Z,1.80
2022-11-25T07:47:25.036Z,1.80
2022-11-25T07:49:53.646Z,1.90
2022-11-25T07:52:22.701Z,1.90
2022-11-25T07:54:52.232Z,2.00
2022-11-25T07:57:21.368Z,2.00
2022-11-25T07:59:49.491Z,2.00
2022-11-25T08:02:18.147Z,2.00
2022-11-25T08:04:46.227Z,2.10
2022-11-25T08:07:14.220Z,2.20
2022-11-25T08:09:42.507Z,2.20
2022-11-25T08:12:11.849Z,2.20
2022-11-25T08:14:39.896Z,2.30
2022-11-25T08:17:08.103Z,2.30
2022-11-25T08:19:37.354Z,2.30
2022-11-25T08:22:06.465Z,2.40
2022-11-25T08:24:34.725Z,2.40
2022-11-25T08:27:02.791Z,2.50
2022-11-25T08:29:32.169Z,2.50
2022-11-25T08:32:00.367Z,2.60
2022-11-25T08:34:28.471Z,2.60
2022-11-25T08:37:03.107Z,2.70
2022-11-25T08:42:19.130Z,2.80
2022-11-25T08:44:53.144Z,2.80
2022-11-25T08:47:21.222Z,2.90
2022-11-25T08:49:52.281Z,2.90
2022-11-25T08:52:20.548Z,3.00
2022-11-25T08:54:48.944Z,3.00
2022-11-25T08:57:17.493Z,3.00
2022-11-25T08:59:45.566Z,3.10
2022-11-25T09:02:17.900Z,3.20
2022-11-25T09:04:46.066Z,3.20
2022-11-25T09:07:14.212Z,3.20
2022-11-25T09:09:42.455Z,3.30
2022-11-25T09:12:10.597Z,3.30
2022-11-25T09:25:52.791Z,3.50
2022-11-25T09:28:20.951Z,3.50
2022-11-25T09:30:49.518Z,3.60
2022-11-25T09:33:18.416Z,3.60
2022-11-25T09:35:48.643Z,3.70
2022-11-25T09:38:16.829Z,3.70
2022-11-25T09:40:52.235Z,3.80
2022-11-25T09:43:45.898Z,3.80
2022-11-25T09:46:42.815Z,3.90
2022-11-25T09:49:22.676Z,3.90
2022-11-25T09:52:04.139Z,4.00
2022-11-25T09:54:36.937Z,4.10
2022-11-25T09:57:19.507Z,4.20
2022-11-25T09:59:58.524Z,4.20
2022-11-25T10:02:31.093Z,4.20
2022-11-25T10:05:06.048Z,4.40
2022-11-25T10:07:40.569Z,4.40
2022-11-25T10:10:20.406Z,4.40
2022-11-25T10:12:52.847Z,4.50
2022-11-25T10:15:27.343Z,4.50
2022-11-25T10:17:59.389Z,4.60
2022-11-25T10:20:32.406Z,4.60
2022-11-25T10:23:05.100Z,4.70
2022-11-25T10:25:38.868Z,4.70
2022-11-25T10:28:17.750Z,4.80
2022-11-25T10:30:50.898Z,4.80
2022-11-25T10:33:22.444Z,4.90
2022-11-25T10:35:54.781Z,5.00
2022-11-25T10:38:29.849Z,5.00
2022-11-25T10:40:59.274Z,5.00
2022-11-25T10:43:31.717Z,5.00
2022-11-25T10:46:09.643Z,5.10
2022-11-25T10:48:50.521Z,5.10
2022-11-25T10:51:36.592Z,5.10
2022-11-25T10:54:15.025Z,5.20
2022-11-25T10:56:50.689Z,5.20
2022-11-25T10:59:27.652Z,5.30
2022-11-25T11:02:16.292Z,5.30
2022-11-25T11:04:55.403Z,5.30
2022-11-25T11:07:24.666Z,5.40
2022-11-25T11:09:54.526Z,5.40
2022-11-25T11:12:25.439Z,5.40
2022-11-25T11:14:54.035Z,5.40
2022-11-25T11:17:34.740Z,5.40
2022-11-25T11:20:18.473Z,5.50
2022-11-25T11:22:50.468Z,5.50
2022-11-25T11:25:31.127Z,5.60
2022-11-25T11:27:59.688Z,5.50
2022-11-25T11:30:29.589Z,5.50
2022-11-25T11:33:01.364Z,5.50
2022-11-25T11:35:51.175Z,5.50
2022-11-25T11:38:30.675Z,5.50
2022-11-25T11:41:13.661Z,5.50
2022-11-25T11:44:05.030Z,5.50
2022-11-25T11:46:43.941Z,5.50
2022-11-25T11:49:37.215Z,5.50
2022-11-25T11:52:12.251Z,5.70
2022-11-25T11:54:46.881Z,5.70
2022-11-25T11:57:28.113Z,5.70
2022-11-25T11:59:57.172Z,5.70
2022-11-25T12:02:33.666Z,5.80
2022-11-25T12:05:13.337Z,5.80
2022-11-25T12:07:51.695Z,5.90
2022-11-25T12:10:26.443Z,5.90
2022-11-25T12:13:04.030Z,6.00
2022-11-25T12:15:42.436Z,6.00
2022-11-25T12:18:21.906Z,6.00
2022-11-25T12:20:56.970Z,6.20
2022-11-25T12:23:30.476Z,6.30
2022-11-25T12:26:04.009Z,6.40
2022-11-25T12:28:38.858Z,6.50
2022-11-25T12:31:14.115Z,6.50
2022-11-25T12:33:54.451Z,6.50
2022-11-25T12:36:28.835Z,6.60
2022-11-25T12:39:01.271Z,6.50
2022-11-25T12:41:38.336Z,6.60
2022-11-25T12:44:14.452Z,6.60
2022-11-25T12:46:46.586Z,6.60
2022-11-25T12:49:20.635Z,6.50
2022-11-25T12:52:18.355Z,6.40
2022-11-25T12:55:09.703Z,6.40
2022-11-25T12:58:07.826Z,6.40
2022-11-25T13:01:11.898Z,6.40
2022-11-25T13:04:17.969Z,6.40
2022-11-25T13:07:17.557Z,6.30
2022-11-25T13:10:03.092Z,6.20
2022-11-25T13:12:45.851Z,6.30
2022-11-25T13:15:34.672Z,6.40
2022-11-25T13:18:10.384Z,6.40
2022-11-25T13:20:48.233Z,6.50
2022-11-25T13:23:25.813Z,6.50
2022-11-25T13:25:56.478Z,6.60
2022-11-25T13:28:33.885Z,6.60
2022-11-25T13:31:22.716Z,6.60
2022-11-25T13:34:08.061Z,6.70
2022-11-25T13:36:47.612Z,6.70
2022-11-25T13:39:17.605Z,6.80
2022-11-25T13:41:49.780Z,6.80
2022-11-25T13:44:28.800Z,6.90
2022-11-25T13:46:58.716Z,6.90
2022-11-25T13:49:32.403Z,7.00
2022-11-25T13:52:04.096Z,7.00
2022-11-25T13:54:37.126Z,7.00
2022-11-25T13:57:26.661Z,7.10
2022-11-25T13:59:57.951Z,7.00
2022-11-25T14:02:41.910Z,7.00
2022-11-25T14:05:39.019Z,7.00
2022-11-25T14:08:20.270Z,7.00
2022-11-25T14:10:57.123Z,7.00
2022-11-25T14:13:43.127Z,7.00
2022-11-25T14:16:27.745Z,7.00
2022-11-25T14:22:35.745Z,6.90
2022-11-25T14:25:16.154Z,6.90
2022-11-25T14:27:48.743Z,6.90
2022-11-25T14:30:18.701Z,6.90
2022-11-25T14:32:55.995Z,6.90
2022-11-25T14:35:29.679Z,6.80
2022-11-25T14:38:04.237Z,6.80
2022-11-25T14:40:37.245Z,6.80
2022-11-25T14:43:09.061Z,6.80
2022-11-25T14:45:42.158Z,6.80
2022-11-25T14:48:17.304Z,6.70
2022-11-25T14:51:01.429Z,6.70
2022-11-25T14:53:33.322Z,6.70
2022-11-25T14:56:03.035Z,6.70
2022-11-25T14:58:32.417Z,6.60
2022-11-25T15:01:05.126Z,6.60
2022-11-25T15:03:33.489Z,6.60
2022-11-25T15:06:04.919Z,6.60
2022-11-25T15:08:41.472Z,6.50
2022-11-25T15:11:15.418Z,6.50
2022-11-25T15:13:45.483Z,6.60
2022-11-25T15:16:15.944Z,6.50
2022-11-25T15:18:50.446Z,6.50
2022-11-25T15:21:23.065Z,6.50
2022-11-25T15:23:52.574Z,6.40
2022-11-25T15:26:22.660Z,6.50
2022-11-25T15:28:56.460Z,6.40
2022-11-25T15:31:30.857Z,6.40
2022-11-25T15:34:03.007Z,6.30
2022-11-25T15:36:31.429Z,6.30
2022-11-25T15:46:31.398Z,6.30
2022-11-25T15:49:02.232Z,6.20
2022-11-25T15:51:34.941Z,6.20
2022-11-25T15:54:06.677Z,6.20
2022-11-25T15:56:40.202Z,6.20
2022-11-25T15:59:42.005Z,6.20
2022-11-25T16:02:33.095Z,6.10
2022-11-25T16:05:25.007Z,6.10
2022-11-25T16:08:02.768Z,6.10
2022-11-25T16:10:32.991Z,6.10
2022-11-25T16:13:34.669Z,6.10
2022-11-25T16:16:17.431Z,6.10
2022-11-25T16:18:57.301Z,6.00
2022-11-25T16:21:27.112Z,6.10
2022-11-25T16:24:08.161Z,6.00
2022-11-25T16:26:38.038Z,6.00
2022-11-25T16:29:18.754Z,6.00
2022-11-25T16:31:46.929Z,6.00
2022-11-25T16:34:18.274Z,6.00
2022-11-25T16:36:46.487Z,6.00
2022-11-25T16:39:18.152Z,6.00
2022-11-25T16:42:19.725Z,6.00
2022-11-25T16:44:50.311Z,6.00
2022-11-25T16:47:19.809Z,6.00
2022-11-25T16:49:49.618Z,6.00
2022-11-25T16:52:17.897Z,5.90
2022-11-25T16:54:46.224Z,5.90
2022-11-25T16:57:19.955Z,5.90
2022-11-25T16:59:53.220Z,5.90
2022-11-25T17:02:25.635Z,5.90
2022-11-25T17:04:55.305Z,5.90
2022-11-25T17:07:32.687Z,6.00
2022-11-25T17:10:02.032Z,6.00
2022-11-25T17:12:34.971Z,5.90
2022-11-25T17:15:05.568Z,5.90
2022-11-25T17:17:34.967Z,6.00
2022-11-25T17:20:04.957Z,6.00
2022-11-25T17:22:39.149Z,6.00
2022-11-25T17:25:08.147Z,6.00
2022-11-25T17:27:36.498Z,6.00
2022-11-25T17:30:06.689Z,6.00
2022-11-25T17:32:35.779Z,6.00
2022-11-25T17:35:07.615Z,5.90
2022-11-25T17:37:35.741Z,5.90
2022-11-25T17:40:03.843Z,5.90
2022-11-25T17:42:33.929Z,5.90
2022-11-25T17:45:02.327Z,6.00
2022-11-25T17:47:30.338Z,5.90
2022-11-25T17:49:58.873Z,6.00
2022-11-25T17:52:28.267Z,5.90
2022-11-25T17:54:56.327Z,5.90
2022-11-25T17:57:29.139Z,5.90
2022-11-25T17:59:57.571Z,6.00
2022-11-25T18:02:27.564Z,5.90
2022-11-25T18:04:56.032Z,5.90
2022-11-25T18:07:26.414Z,5.90
2022-11-25T18:09:55.886Z,5.90
2022-11-25T18:12:28.516Z,5.90
2022-11-25T18:14:57.315Z,5.90
2022-11-25T18:17:25.744Z,5.90
2022-11-25T18:19:55.472Z,5.90
2022-11-25T18:22:24.800Z,5.90
2022-11-25T18:24:55.199Z,5.90
2022-11-25T18:27:28.533Z,5.90
2022-11-25T18:29:57.936Z,5.90
2022-11-25T18:32:26.467Z,6.00
2022-11-25T18:34:54.551Z,5.90
2022-11-25T18:37:22.813Z,5.90
2022-11-25T18:39:50.977Z,5.90
2022-11-25T18:42:25.912Z,6.00
2022-11-25T18:44:54.805Z,6.00
2022-11-25T18:47:23.258Z,6.00
2022-11-25T18:49:55.994Z,6.00
2022-11-25T18:52:25.528Z,5.90
2022-11-25T18:54:53.913Z,6.00
2022-11-25T18:57:22.239Z,6.00
2022-11-25T19:00:16.914Z,6.00
2022-11-25T19:02:39.798Z,6.00
2022-11-25T19:05:17.883Z,6.00
2022-11-25T19:07:49.824Z,6.00
2022-11-25T19:10:18.766Z,6.00
2022-11-25T19:12:50.484Z,6.00
2022-11-25T19:15:23.589Z,6.00
2022-11-25T19:17:57.794Z,6.00
2022-11-25T19:20:28.374Z,6.00
2022-11-25T19:23:00.844Z,6.00
2022-11-25T19:25:29.800Z,6.10
2022-11-25T19:28:00.763Z,6.10
2022-11-25T19:30:33.338Z,6.10
2022-11-25T19:33:03.178Z,6.10
2022-11-25T19:35:34.691Z,6.10
2022-11-25T19:38:02.923Z,6.10
2022-11-25T19:40:39.003Z,6.20
2022-11-25T19:43:08.744Z,6.10
2022-11-25T19:45:39.079Z,6.10
2022-11-25T19:48:09.613Z,6.10
2022-11-25T19:50:39.853Z,6.10
2022-11-25T19:53:16.040Z,6.10
2022-11-25T19:55:45.083Z,6.10
2022-11-25T19:58:13.825Z,6.20
2022-11-25T20:00:45.065Z,6.20
2022-11-25T20:03:20.493Z,6.20
2022-11-25T20:05:48.893Z,6.20
2022-11-25T20:08:22.259Z,6.30
2022-11-25T20:10:50.583Z,6.30
2022-11-25T20:13:18.926Z,6.30
2022-11-25T20:15:48.420Z,6.30
2022-11-25T20:18:20.476Z,6.30
2022-11-25T20:20:54.101Z,6.30
2022-11-25T20:23:27.409Z,6.30
2022-11-25T20:25:55.655Z,6.30
2022-11-25T20:28:25.973Z,6.40
2022-11-25T20:30:55.775Z,6.40
2022-11-25T20:33:25.158Z,6.40
2022-11-25T20:36:00.376Z,6.40
2022-11-25T20:38:31.131Z,6.40
2022-11-25T20:41:00.845Z,6.40
2022-11-25T20:43:31.211Z,6.40
2022-11-25T20:46:02.773Z,6.50
2022-11-25T20:48:31.084Z,6.40
2022-11-25T20:51:02.165Z,6.40
2022-11-25T20:53:32.353Z,6.40
2022-11-25T20:56:02.134Z,6.40
2022-11-25T20:58:32.840Z,6.40
2022-11-25T21:01:02.633Z,6.40
2022-11-25T21:03:30.691Z,6.50
2022-11-25T21:05:59.270Z,6.40
2022-11-25T21:08:31.547Z,6.40
2022-11-25T21:11:00.324Z,6.40
2022-11-25T21:13:30.847Z,6.40
2022-11-25T21:15:58.934Z,6.40
2022-11-25T21:18:28.447Z,6.40
2022-11-25T21:20:57.903Z,6.40
2022-11-25T21:23:29.293Z,6.40
2022-11-25T21:26:02.331Z,6.50
2022-11-25T21:28:30.448Z,6.50
2022-11-25T21:30:58.634Z,6.50
2022-11-25T21:33:28.381Z,6.50
2022-11-25T21:35:56.569Z,6.50
2022-11-25T21:38:27.783Z,6.50
2022-11-25T21:40:58.248Z,6.50
2022-11-25T21:43:29.914Z,6.50
2022-11-25T21:46:04.476Z,6.50
2022-11-25T21:48:34.462Z,6.50
2022-11-25T21:51:02.566Z,6.50
2022-11-25T21:53:34.603Z,6.50
2022-11-25T21:56:12.166Z,6.50
2022-11-25T21:58:41.618Z,6.50
2022-11-25T22:01:13.036Z,6.50
2022-11-25T22:03:42.536Z,6.50
2022-11-25T22:06:19.608Z,6.40
2022-11-25T22:08:47.724Z,6.40
2022-11-25T22:11:17.908Z,6.40
2022-11-25T22:13:47.884Z,6.40
2022-11-25T22:16:18.213Z,6.40
2022-11-25T22:18:48.930Z,6.40
2022-11-25T22:21:17.572Z,6.40
2022-11-25T22:23:46.719Z,6.40
2022-11-25T22:26:18.975Z,6.40
2022-11-25T22:28:53.051Z,6.30
2022-11-25T22:31:22.171Z,6.30
2022-11-25T22:33:52.524Z,6.30
2022-11-25T22:36:34.093Z,6.30
2022-11-25T22:39:13.515Z,6.30
2022-11-25T22:41:42.261Z,6.30
2022-11-25T22:44:21.930Z,6.30
2022-11-25T22:46:51.175Z,6.30
2022-11-25T22:49:34.706Z,6.30
2022-11-25T22:52:02.958Z,6.30
2022-11-25T22:54:31.014Z,6.30
2022-11-25T22:57:01.310Z,6.30
2022-11-25T22:59:29.448Z,6.30
2022-11-25T23:01:57.962Z,6.30
2022-11-25T23:04:25.984Z,6.30
2022-11-25T23:06:56.845Z,6.30
2022-11-25T23:09:24.903Z,6.20
2022-11-25T23:11:53.283Z,6.20
2022-11-25T23:14:21.313Z,6.20
2022-11-25T23:16:49.553Z,6.20
2022-11-25T23:19:17.984Z,6.20
2022-11-25T23:21:46.657Z,6.20
2022-11-25T23:24:17.727Z,6.20
2022-11-25T23:26:45.879Z,6.20
2022-11-25T23:29:13.954Z,6.20
2022-11-25T23:31:42.035Z,6.20
2022-11-25T23:34:13.750Z,6.30
2022-11-25T23:36:44.960Z,6.20
2022-11-25T23:39:20.074Z,6.20
2022-11-25T23:41:48.818Z,6.30
2022-11-25T23:44:21.377Z,6.30
2022-11-25T23:46:50.141Z,6.20
2022-11-25T23:49:24.468Z,6.30
2022-11-25T23:51:56.227Z,6.20
2022-11-25T23:54:29.939Z,6.20
2022-11-25T23:56:58.340Z,6.30
2022-11-25T23:59:30.756Z,6.20
